sensor_id;sensor_type;location;lat;lon;timestamp;pressure;altitude;pressure_sealevel;temperature
34125;BMP280;20110;53.120;5.786;2023-11-19T00:00:22;100509.19;;;19.61
34125;BMP280;20110;53.120;5.786;2023-11-19T00:02:49;100524.59;;;19.82
34125;BMP280;20110;53.120;5.786;2023-11-19T00:05:14;100506.78;;;19.77
34125;BMP280;20110;53.120;5.786;2023-11-19T00:07:40;100493.66;;;19.71
34125;BMP280;20110;53.120;5.786;2023-11-19T00:10:09;100464.91;;;19.52
34125;BMP280;20110;53.120;5.786;2023-11-19T00:12:43;100519.69;;;19.90
34125;BMP280;20110;53.120;5.786;2023-11-19T00:15:09;100506.53;;;19.73
34125;BMP280;20110;53.120;5.786;2023-11-19T00:17:40;100482.88;;;19.71
34125;BMP280;20110;53.120;5.786;2023-11-19T00:20:06;100476.78;;;19.70
34125;BMP280;20110;53.120;5.786;2023-11-19T00:22:33;100478.31;;;19.85
34125;BMP280;20110;53.120;5.786;2023-11-19T00:24:59;100497.88;;;19.86
34125;BMP280;20110;53.120;5.786;2023-11-19T00:27:25;100520.72;;;19.85
34125;BMP280;20110;53.120;5.786;2023-11-19T00:29:51;100522.03;;;19.84
34125;BMP280;20110;53.120;5.786;2023-11-19T00:32:17;100486.88;;;19.70
34125;BMP280;20110;53.120;5.786;2023-11-19T00:34:46;100504.81;;;19.89
34125;BMP280;20110;53.120;5.786;2023-11-19T00:37:14;100456.94;;;19.43
34125;BMP280;20110;53.120;5.786;2023-11-19T00:39:41;100481.72;;;19.74
34125;BMP280;20110;53.120;5.786;2023-11-19T00:42:07;100488.03;;;19.67
34125;BMP280;20110;53.120;5.786;2023-11-19T00:44:33;100450.13;;;19.42
34125;BMP280;20110;53.120;5.786;2023-11-19T00:46:58;100483.47;;;19.69
34125;BMP280;20110;53.120;5.786;2023-11-19T00:49:25;100505.84;;;19.72
34125;BMP280;20110;53.120;5.786;2023-11-19T00:51:51;100443.09;;;19.25
34125;BMP280;20110;53.120;5.786;2023-11-19T00:54:17;100463.16;;;19.45
34125;BMP280;20110;53.120;5.786;2023-11-19T00:56:45;100471.97;;;19.57
34125;BMP280;20110;53.120;5.786;2023-11-19T00:59:11;100484.72;;;19.57
34125;BMP280;20110;53.120;5.786;2023-11-19T01:01:37;100486.59;;;19.54
34125;BMP280;20110;53.120;5.786;2023-11-19T01:04:03;100492.31;;;19.49
34125;BMP280;20110;53.120;5.786;2023-11-19T01:06:30;100500.88;;;19.57
34125;BMP280;20110;53.120;5.786;2023-11-19T01:08:56;100514.56;;;19.49
34125;BMP280;20110;53.120;5.786;2023-11-19T01:11:25;100481.47;;;19.25
34125;BMP280;20110;53.120;5.786;2023-11-19T01:13:51;100478.25;;;19.39
34125;BMP280;20110;53.120;5.786;2023-11-19T01:16:18;100508.69;;;19.53
34125;BMP280;20110;53.120;5.786;2023-11-19T01:18:46;100506.47;;;19.49
34125;BMP280;20110;53.120;5.786;2023-11-19T01:21:12;100429.56;;;19.02
34125;BMP280;20110;53.120;5.786;2023-11-19T01:23:40;100507.31;;;19.52
34125;BMP280;20110;53.120;5.786;2023-11-19T01:26:10;100499.50;;;19.56
34125;BMP280;20110;53.120;5.786;2023-11-19T01:28:36;100452.94;;;19.32
34125;BMP280;20110;53.120;5.786;2023-11-19T01:31:02;100474.47;;;19.32
34125;BMP280;20110;53.120;5.786;2023-11-19T01:33:29;100486.81;;;19.47
34125;BMP280;20110;53.120;5.786;2023-11-19T01:35:55;100453.16;;;19.24
34125;BMP280;20110;53.120;5.786;2023-11-19T01:38:22;100481.44;;;19.47
34125;BMP280;20110;53.120;5.786;2023-11-19T01:40:48;100483.41;;;19.46
34125;BMP280;20110;53.120;5.786;2023-11-19T01:43:34;100476.63;;;19.45
34125;BMP280;20110;53.120;5.786;2023-11-19T01:46:01;100418.72;;;19.11
34125;BMP280;20110;53.120;5.786;2023-11-19T01:48:27;100452.50;;;19.36
34125;BMP280;20110;53.120;5.786;2023-11-19T01:50:53;100462.88;;;19.29
34125;BMP280;20110;53.120;5.786;2023-11-19T01:53:19;100434.72;;;19.09
34125;BMP280;20110;53.120;5.786;2023-11-19T01:55:49;100473.38;;;19.14
34125;BMP280;20110;53.120;5.786;2023-11-19T01:58:16;100440.81;;;18.88
34125;BMP280;20110;53.120;5.786;2023-11-19T02:00:42;100440.28;;;18.90
34125;BMP280;20110;53.120;5.786;2023-11-19T02:03:10;100476.81;;;19.05
34125;BMP280;20110;53.120;5.786;2023-11-19T02:36:41;100453.41;;;18.74
34125;BMP280;20110;53.120;5.786;2023-11-19T02:39:07;100431.72;;;18.61
34125;BMP280;20110;53.120;5.786;2023-11-19T02:41:36;100427.84;;;18.64
34125;BMP280;20110;53.120;5.786;2023-11-19T02:44:02;100431.44;;;18.78
34125;BMP280;20110;53.120;5.786;2023-11-19T02:46:28;100441.44;;;18.87
34125;BMP280;20110;53.120;5.786;2023-11-19T02:48:54;100448.78;;;18.86
34125;BMP280;20110;53.120;5.786;2023-11-19T02:51:20;100396.75;;;18.61
34125;BMP280;20110;53.120;5.786;2023-11-19T02:53:45;100449.34;;;19.06
34125;BMP280;20110;53.120;5.786;2023-11-19T02:56:14;100455.19;;;19.03
34125;BMP280;20110;53.120;5.786;2023-11-19T02:58:51;100436.09;;;18.99
34125;BMP280;20110;53.120;5.786;2023-11-19T03:03:53;100433.63;;;19.24
34125;BMP280;20110;53.120;5.786;2023-11-19T03:06:20;100440.72;;;19.19
34125;BMP280;20110;53.120;5.786;2023-11-19T03:08:47;100408.25;;;18.94
34125;BMP280;20110;53.120;5.786;2023-11-19T03:11:13;100415.03;;;18.95
34125;BMP280;20110;53.120;5.786;2023-11-19T03:13:39;100427.50;;;19.12
34125;BMP280;20110;53.120;5.786;2023-11-19T03:16:05;100413.56;;;19.04
34125;BMP280;20110;53.120;5.786;2023-11-19T03:18:31;100393.91;;;19.13
34125;BMP280;20110;53.120;5.786;2023-11-19T03:20:58;100433.03;;;19.25
34125;BMP280;20110;53.120;5.786;2023-11-19T03:23:24;100423.03;;;19.16
34125;BMP280;20110;53.120;5.786;2023-11-19T03:25:53;100383.38;;;18.84
34125;BMP280;20110;53.120;5.786;2023-11-19T03:28:19;100393.78;;;18.78
34125;BMP280;20110;53.120;5.786;2023-11-19T03:30:45;100412.66;;;18.89
34125;BMP280;20110;53.120;5.786;2023-11-19T03:33:10;100428.72;;;18.99
34125;BMP280;20110;53.120;5.786;2023-11-19T03:35:36;100423.69;;;18.94
34125;BMP280;20110;53.120;5.786;2023-11-19T03:38:03;100427.38;;;18.88
34125;BMP280;20110;53.120;5.786;2023-11-19T03:40:29;100397.81;;;18.67
34125;BMP280;20110;53.120;5.786;2023-11-19T03:42:58;100335.81;;;18.11
34125;BMP280;20110;53.120;5.786;2023-11-19T03:45:24;100328.72;;;17.94
34125;BMP280;20110;53.120;5.786;2023-11-19T03:47:51;100378.28;;;18.03
34125;BMP280;20110;53.120;5.786;2023-11-19T03:50:17;100418.44;;;18.32
34125;BMP280;20110;53.120;5.786;2023-11-19T03:52:46;100393.63;;;18.12
34125;BMP280;20110;53.120;5.786;2023-11-19T03:55:12;100434.63;;;18.43
34125;BMP280;20110;53.120;5.786;2023-11-19T03:57:38;100412.72;;;18.16
34125;BMP280;20110;53.120;5.786;2023-11-19T04:00:05;100415.06;;;18.22
34125;BMP280;20110;53.120;5.786;2023-11-19T04:02:36;100424.56;;;18.23
34125;BMP280;20110;53.120;5.786;2023-11-19T04:05:02;100422.31;;;18.19
34125;BMP280;20110;53.120;5.786;2023-11-19T04:07:30;100419.84;;;18.02
34125;BMP280;20110;53.120;5.786;2023-11-19T04:09:57;100436.16;;;18.25
34125;BMP280;20110;53.120;5.786;2023-11-19T04:12:23;100383.47;;;18.10
34125;BMP280;20110;53.120;5.786;2023-11-19T04:14:50;100422.84;;;18.27
34125;BMP280;20110;53.120;5.786;2023-11-19T04:17:16;100389.66;;;18.13
34125;BMP280;20110;53.120;5.786;2023-11-19T04:19:41;100371.63;;;18.04
34125;BMP280;20110;53.120;5.786;2023-11-19T04:22:07;100418.06;;;18.47
34125;BMP280;20110;53.120;5.786;2023-11-19T04:24:34;100423.56;;;18.49
34125;BMP280;20110;53.120;5.786;2023-11-19T04:27:00;100390.16;;;18.31
34125;BMP280;20110;53.120;5.786;2023-11-19T04:29:26;100388.53;;;18.37
34125;BMP280;20110;53.120;5.786;2023-11-19T04:31:52;100410.38;;;18.53
34125;BMP280;20110;53.120;5.786;2023-11-19T04:34:17;100395.69;;;18.23
34125;BMP280;20110;53.120;5.786;2023-11-19T04:36:43;100409.66;;;18.31
34125;BMP280;20110;53.120;5.786;2023-11-19T04:39:09;100400.84;;;18.40
34125;BMP280;20110;53.120;5.786;2023-11-19T04:41:50;100423.97;;;18.45
34125;BMP280;20110;53.120;5.786;2023-11-19T04:44:19;100438.59;;;18.42
34125;BMP280;20110;53.120;5.786;2023-11-19T04:46:46;100427.78;;;18.52
34125;BMP280;20110;53.120;5.786;2023-11-19T04:49:12;100400.00;;;18.38
34125;BMP280;20110;53.120;5.786;2023-11-19T04:51:43;100415.09;;;18.43
34125;BMP280;20110;53.120;5.786;2023-11-19T04:54:09;100429.00;;;18.61
34125;BMP280;20110;53.120;5.786;2023-11-19T04:56:38;100411.53;;;18.50
34125;BMP280;20110;53.120;5.786;2023-11-19T04:59:05;100418.53;;;18.34
34125;BMP280;20110;53.120;5.786;2023-11-19T05:01:35;100427.97;;;18.44
34125;BMP280;20110;53.120;5.786;2023-11-19T05:04:01;100431.56;;;18.37
34125;BMP280;20110;53.120;5.786;2023-11-19T05:06:31;100419.19;;;18.23
34125;BMP280;20110;53.120;5.786;2023-11-19T05:08:59;100397.25;;;17.95
34125;BMP280;20110;53.120;5.786;2023-11-19T05:11:35;100420.78;;;18.16
34125;BMP280;20110;53.120;5.786;2023-11-19T05:14:03;100402.09;;;17.87
34125;BMP280;20110;53.120;5.786;2023-11-19T05:16:31;100420.25;;;18.08
34125;BMP280;20110;53.120;5.786;2023-11-19T05:18:57;100432.41;;;18.09
34125;BMP280;20110;53.120;5.786;2023-11-19T05:21:23;100438.94;;;18.06
34125;BMP280;20110;53.120;5.786;2023-11-19T05:23:49;100447.47;;;17.93
34125;BMP280;20110;53.120;5.786;2023-11-19T05:26:22;100438.31;;;17.77
34125;BMP280;20110;53.120;5.786;2023-11-19T05:28:48;100459.63;;;17.94
34125;BMP280;20110;53.120;5.786;2023-11-19T05:31:16;100447.97;;;18.01
34125;BMP280;20110;53.120;5.786;2023-11-19T05:33:42;100358.84;;;17.33
34125;BMP280;20110;53.120;5.786;2023-11-19T05:36:07;100459.25;;;18.09
34125;BMP280;20110;53.120;5.786;2023-11-19T05:38:36;100375.50;;;17.51
34125;BMP280;20110;53.120;5.786;2023-11-19T05:43:45;100373.81;;;17.46
34125;BMP280;20110;53.120;5.786;2023-11-19T05:46:18;100360.16;;;17.32
34125;BMP280;20110;53.120;5.786;2023-11-19T05:48:44;100382.16;;;17.50
34125;BMP280;20110;53.120;5.786;2023-11-19T05:51:12;100448.25;;;18.05
34125;BMP280;20110;53.120;5.786;2023-11-19T05:53:38;100356.44;;;17.37
34125;BMP280;20110;53.120;5.786;2023-11-19T05:56:05;100358.84;;;17.43
34125;BMP280;20110;53.120;5.786;2023-11-19T05:58:33;100367.84;;;17.57
34125;BMP280;20110;53.120;5.786;2023-11-19T06:00:58;100443.22;;;18.21
34125;BMP280;20110;53.120;5.786;2023-11-19T06:03:26;100463.41;;;18.31
34125;BMP280;20110;53.120;5.786;2023-11-19T06:05:56;100458.31;;;18.04
34125;BMP280;20110;53.120;5.786;2023-11-19T06:08:24;100451.28;;;17.90
34125;BMP280;20110;53.120;5.786;2023-11-19T06:47:49;100467.25;;;17.88
34125;BMP280;20110;53.120;5.786;2023-11-19T06:50:17;100460.91;;;17.83
34125;BMP280;20110;53.120;5.786;2023-11-19T06:52:43;100388.09;;;17.29
34125;BMP280;20110;53.120;5.786;2023-11-19T06:55:10;100464.34;;;17.64
34125;BMP280;20110;53.120;5.786;2023-11-19T06:57:37;100395.16;;;17.34
34125;BMP280;20110;53.120;5.786;2023-11-19T07:00:03;100453.25;;;17.89
34125;BMP280;20110;53.120;5.786;2023-11-19T07:02:35;100415.16;;;17.72
34125;BMP280;20110;53.120;5.786;2023-11-19T07:05:01;100467.16;;;18.17
34125;BMP280;20110;53.120;5.786;2023-11-19T07:07:32;100455.06;;;17.96
34125;BMP280;20110;53.120;5.786;2023-11-19T07:10:01;100390.91;;;17.50
34125;BMP280;20110;53.120;5.786;2023-11-19T07:12:28;100315.84;;;16.92
34125;BMP280;20110;53.120;5.786;2023-11-19T07:14:56;100383.16;;;17.35
34125;BMP280;20110;53.120;5.786;2023-11-19T07:17:22;100468.19;;;18.02
34125;BMP280;20110;53.120;5.786;2023-11-19T07:19:49;100388.50;;;17.35
34125;BMP280;20110;53.120;5.786;2023-11-19T07:22:16;100356.34;;;17.06
34125;BMP280;20110;53.120;5.786;2023-11-19T07:24:42;100475.16;;;17.95
34125;BMP280;20110;53.120;5.786;2023-11-19T07:27:08;100454.53;;;17.88
34125;BMP280;20110;53.120;5.786;2023-11-19T07:29:35;100470.91;;;17.92
34125;BMP280;20110;53.120;5.786;2023-11-19T07:32:02;100473.78;;;17.75
34125;BMP280;20110;53.120;5.786;2023-11-19T07:34:28;100487.47;;;17.89
34125;BMP280;20110;53.120;5.786;2023-11-19T07:36:54;100492.69;;;17.87
34125;BMP280;20110;53.120;5.786;2023-11-19T07:39:25;100496.06;;;17.97
34125;BMP280;20110;53.120;5.786;2023-11-19T07:41:51;100465.56;;;17.83
34125;BMP280;20110;53.120;5.786;2023-11-19T07:44:17;100503.50;;;18.18
34125;BMP280;20110;53.120;5.786;2023-11-19T07:46:43;100480.94;;;18.01
34125;BMP280;20110;53.120;5.786;2023-11-19T07:49:10;100501.38;;;18.16
34125;BMP280;20110;53.120;5.786;2023-11-19T07:51:36;100420.53;;;17.62
34125;BMP280;20110;53.120;5.786;2023-11-19T07:54:02;100447.50;;;17.64
34125;BMP280;20110;53.120;5.786;2023-11-19T07:56:28;100487.28;;;18.06
34125;BMP280;20110;53.120;5.786;2023-11-19T07:58:53;100497.72;;;18.11
34125;BMP280;20110;53.120;5.786;2023-11-19T08:01:19;100497.59;;;18.00
34125;BMP280;20110;53.120;5.786;2023-11-19T08:03:45;100460.72;;;17.41
34125;BMP280;20110;53.120;5.786;2023-11-19T08:06:11;100510.69;;;17.75
34125;BMP280;20110;53.120;5.786;2023-11-19T08:08:37;100515.22;;;17.72
34125;BMP280;20110;53.120;5.786;2023-11-19T08:11:04;100514.94;;;17.68
34125;BMP280;20110;53.120;5.786;2023-11-19T08:13:31;100524.81;;;17.65
34125;BMP280;20110;53.120;5.786;2023-11-19T08:15:57;100514.94;;;17.58
34125;BMP280;20110;53.120;5.786;2023-11-19T08:18:24;100523.13;;;17.60
34125;BMP280;20110;53.120;5.786;2023-11-19T08:20:49;100489.53;;;17.50
34125;BMP280;20110;53.120;5.786;2023-11-19T08:23:19;100510.56;;;17.73
34125;BMP280;20110;53.120;5.786;2023-11-19T08:25:45;100488.19;;;17.70
34125;BMP280;20110;53.120;5.786;2023-11-19T08:28:11;100446.84;;;17.35
34125;BMP280;20110;53.120;5.786;2023-11-19T08:30:36;100469.69;;;17.74
34125;BMP280;20110;53.120;5.786;2023-11-19T08:33:02;100492.25;;;17.90
34125;BMP280;20110;53.120;5.786;2023-11-19T08:35:29;100511.13;;;18.11
34125;BMP280;20110;53.120;5.786;2023-11-19T08:37:55;100508.25;;;18.29
34125;BMP280;20110;53.120;5.786;2023-11-19T08:40:21;100498.47;;;18.33
34125;BMP280;20110;53.120;5.786;2023-11-19T08:42:46;100501.03;;;18.31
34125;BMP280;20110;53.120;5.786;2023-11-19T08:45:12;100527.59;;;18.46
34125;BMP280;20110;53.120;5.786;2023-11-19T08:47:38;100506.94;;;18.49
34125;BMP280;20110;53.120;5.786;2023-11-19T08:50:06;100536.84;;;18.65
34125;BMP280;20110;53.120;5.786;2023-11-19T08:52:32;100498.00;;;18.46
34125;BMP280;20110;53.120;5.786;2023-11-19T08:54:58;100479.34;;;18.48
34125;BMP280;20110;53.120;5.786;2023-11-19T08:57:23;100516.69;;;18.97
34125;BMP280;20110;53.120;5.786;2023-11-19T08:59:49;100521.59;;;19.21
34125;BMP280;20110;53.120;5.786;2023-11-19T09:02:15;100522.47;;;19.24
34125;BMP280;20110;53.120;5.786;2023-11-19T09:04:40;100514.72;;;19.30
34125;BMP280;20110;53.120;5.786;2023-11-19T09:07:06;100500.47;;;19.27
34125;BMP280;20110;53.120;5.786;2023-11-19T09:09:35;100516.41;;;19.35
34125;BMP280;20110;53.120;5.786;2023-11-19T09:12:02;100540.28;;;19.41
34125;BMP280;20110;53.120;5.786;2023-11-19T09:14:29;100501.50;;;19.22
34125;BMP280;20110;53.120;5.786;2023-11-19T09:16:56;100512.75;;;19.30
34125;BMP280;20110;53.120;5.786;2023-11-19T09:19:22;100539.50;;;19.50
34125;BMP280;20110;53.120;5.786;2023-11-19T09:21:47;100530.50;;;19.57
34125;BMP280;20110;53.120;5.786;2023-11-19T09:24:15;100502.50;;;19.50
34125;BMP280;20110;53.120;5.786;2023-11-19T09:26:41;100516.38;;;19.68
34125;BMP280;20110;53.120;5.786;2023-11-19T09:29:07;100462.53;;;19.23
34125;BMP280;20110;53.120;5.786;2023-11-19T09:31:33;100523.50;;;19.63
34125;BMP280;20110;53.120;5.786;2023-11-19T09:34:00;100430.47;;;18.95
34125;BMP280;20110;53.120;5.786;2023-11-19T09:36:26;100520.88;;;19.54
34125;BMP280;20110;53.120;5.786;2023-11-19T09:38:52;100477.00;;;19.18
34125;BMP280;20110;53.120;5.786;2023-11-19T09:41:17;100530.03;;;19.60
34125;BMP280;20110;53.120;5.786;2023-11-19T09:43:44;100534.16;;;19.61
34125;BMP280;20110;53.120;5.786;2023-11-19T09:46:12;100520.34;;;19.55
34125;BMP280;20110;53.120;5.786;2023-11-19T09:48:39;100527.97;;;19.70
34125;BMP280;20110;53.120;5.786;2023-11-19T09:51:11;100526.94;;;19.76
34125;BMP280;20110;53.120;5.786;2023-11-19T09:53:37;100524.47;;;19.68
34125;BMP280;20110;53.120;5.786;2023-11-19T09:56:05;100534.19;;;19.73
34125;BMP280;20110;53.120;5.786;2023-11-19T09:58:31;100505.59;;;19.56
34125;BMP280;20110;53.120;5.786;2023-11-19T10:00:58;100540.06;;;19.81
34125;BMP280;20110;53.120;5.786;2023-11-19T10:03:33;100474.47;;;19.32
34125;BMP280;20110;53.120;5.786;2023-11-19T10:06:09;100470.16;;;19.39
34125;BMP280;20110;53.120;5.786;2023-11-19T10:08:38;100540.66;;;19.80
34125;BMP280;20110;53.120;5.786;2023-11-19T10:11:06;100542.88;;;19.83
34125;BMP280;20110;53.120;5.786;2023-11-19T10:13:34;100544.97;;;19.85
34125;BMP280;20110;53.120;5.786;2023-11-19T10:16:04;100495.50;;;19.57
34125;BMP280;20110;53.120;5.786;2023-11-19T10:18:32;100522.13;;;19.74
34125;BMP280;20110;53.120;5.786;2023-11-19T10:21:04;100518.41;;;19.79
34125;BMP280;20110;53.120;5.786;2023-11-19T10:23:30;100524.28;;;19.87
34125;BMP280;20110;53.120;5.786;2023-11-19T10:26:02;100513.25;;;19.83
34125;BMP280;20110;53.120;5.786;2023-11-19T10:28:41;100530.38;;;19.99
34125;BMP280;20110;53.120;5.786;2023-11-19T10:31:15;100523.44;;;19.96
34125;BMP280;20110;53.120;5.786;2023-11-19T10:33:41;100546.41;;;19.97
34125;BMP280;20110;53.120;5.786;2023-11-19T10:36:07;100508.44;;;19.82
34125;BMP280;20110;53.120;5.786;2023-11-19T10:38:33;100533.66;;;20.09
34125;BMP280;20110;53.120;5.786;2023-11-19T10:40:59;100498.75;;;20.00
34125;BMP280;20110;53.120;5.786;2023-11-19T10:43:26;100523.34;;;20.18
34125;BMP280;20110;53.120;5.786;2023-11-19T10:45:53;100506.44;;;20.05
34125;BMP280;20110;53.120;5.786;2023-11-19T10:48:19;100453.59;;;19.65
34125;BMP280;20110;53.120;5.786;2023-11-19T10:50:46;100501.41;;;19.77
34125;BMP280;20110;53.120;5.786;2023-11-19T10:53:38;100536.44;;;19.88
34125;BMP280;20110;53.120;5.786;2023-11-19T10:58:44;100537.16;;;20.00
34125;BMP280;20110;53.120;5.786;2023-11-19T11:01:20;100513.13;;;19.93
34125;BMP280;20110;53.120;5.786;2023-11-19T11:03:51;100514.78;;;19.98
34125;BMP280;20110;53.120;5.786;2023-11-19T11:06:19;100457.81;;;19.68
34125;BMP280;20110;53.120;5.786;2023-11-19T11:08:46;100477.03;;;19.86
34125;BMP280;20110;53.120;5.786;2023-11-19T11:11:15;100529.56;;;20.32
34125;BMP280;20110;53.120;5.786;2023-11-19T11:13:47;100527.56;;;20.21
34125;BMP280;20110;53.120;5.786;2023-11-19T11:16:13;100521.81;;;20.03
34125;BMP280;20110;53.120;5.786;2023-11-19T11:18:39;100532.00;;;19.93
34125;BMP280;20110;53.120;5.786;2023-11-19T11:21:09;100513.94;;;19.72
34125;BMP280;20110;53.120;5.786;2023-11-19T11:27:02;100514.09;;;19.53
34125;BMP280;20110;53.120;5.786;2023-11-19T11:38:04;100522.13;;;19.41
34125;BMP280;20110;53.120;5.786;2023-11-19T11:40:32;100513.25;;;19.39
34125;BMP280;20110;53.120;5.786;2023-11-19T11:42:57;100467.00;;;19.09
34125;BMP280;20110;53.120;5.786;2023-11-19T11:45:38;100486.28;;;19.27
34125;BMP280;20110;53.120;5.786;2023-11-19T11:48:10;100508.31;;;19.80
34125;BMP280;20110;53.120;5.786;2023-11-19T11:50:56;100461.91;;;19.69
34125;BMP280;20110;53.120;5.786;2023-11-19T11:53:23;100480.63;;;20.49
34125;BMP280;20110;53.120;5.786;2023-11-19T11:58:19;100517.75;;;21.61
34125;BMP280;20110;53.120;5.786;2023-11-19T12:00:46;100512.16;;;21.71
34125;BMP280;20110;53.120;5.786;2023-11-19T12:03:12;100473.41;;;21.80
34125;BMP280;20110;53.120;5.786;2023-11-19T12:05:43;100501.75;;;21.93
34125;BMP280;20110;53.120;5.786;2023-11-19T12:08:11;100504.66;;;21.83
34125;BMP280;20110;53.120;5.786;2023-11-19T12:10:45;100506.69;;;21.57
34125;BMP280;20110;53.120;5.786;2023-11-19T12:13:13;100497.75;;;21.41
34125;BMP280;20110;53.120;5.786;2023-11-19T12:18:25;100493.19;;;21.18
34125;BMP280;20110;53.120;5.786;2023-11-19T12:20:51;100487.31;;;20.97
34125;BMP280;20110;53.120;5.786;2023-11-19T12:23:17;100503.72;;;21.51
34125;BMP280;20110;53.120;5.786;2023-11-19T12:25:43;100490.88;;;21.52
34125;BMP280;20110;53.120;5.786;2023-11-19T12:28:14;100510.44;;;21.64
34125;BMP280;20110;53.120;5.786;2023-11-19T12:30:41;100475.69;;;21.19
34125;BMP280;20110;53.120;5.786;2023-11-19T12:33:11;100477.81;;;20.96
34125;BMP280;20110;53.120;5.786;2023-11-19T12:35:44;100489.50;;;21.00
34125;BMP280;20110;53.120;5.786;2023-11-19T12:38:21;100507.41;;;21.19
34125;BMP280;20110;53.120;5.786;2023-11-19T12:40:47;100507.56;;;21.09
34125;BMP280;20110;53.120;5.786;2023-11-19T12:43:30;100450.72;;;20.82
34125;BMP280;20110;53.120;5.786;2023-11-19T12:45:57;100496.72;;;20.84
34125;BMP280;20110;53.120;5.786;2023-11-19T12:48:23;100490.94;;;20.64
34125;BMP280;20110;53.120;5.786;2023-11-19T12:50:57;100488.56;;;20.70
34125;BMP280;20110;53.120;5.786;2023-11-19T12:53:25;100481.13;;;20.34
34125;BMP280;20110;53.120;5.786;2023-11-19T12:55:51;100491.78;;;20.43
34125;BMP280;20110;53.120;5.786;2023-11-19T12:58:36;100498.50;;;20.31
34125;BMP280;20110;53.120;5.786;2023-11-19T13:01:07;100466.72;;;20.06
34125;BMP280;20110;53.120;5.786;2023-11-19T13:03:34;100494.25;;;20.28
34125;BMP280;20110;53.120;5.786;2023-11-19T13:06:04;100457.59;;;20.23
34125;BMP280;20110;53.120;5.786;2023-11-19T13:08:38;100499.91;;;20.20
34125;BMP280;20110;53.120;5.786;2023-11-19T13:11:05;100430.28;;;19.70
34125;BMP280;20110;53.120;5.786;2023-11-19T13:13:32;100474.13;;;20.05
34125;BMP280;20110;53.120;5.786;2023-11-19T13:16:04;100489.94;;;20.11
34125;BMP280;20110;53.120;5.786;2023-11-19T13:18:31;100498.25;;;20.15
34125;BMP280;20110;53.120;5.786;2023-11-19T13:20:57;100408.38;;;19.76
34125;BMP280;20110;53.120;5.786;2023-11-19T13:23:23;100436.06;;;19.88
34125;BMP280;20110;53.120;5.786;2023-11-19T13:25:49;100482.31;;;20.19
34125;BMP280;20110;53.120;5.786;2023-11-19T13:28:15;100487.72;;;20.19
34125;BMP280;20110;53.120;5.786;2023-11-19T13:30:40;100468.13;;;20.07
34125;BMP280;20110;53.120;5.786;2023-11-19T13:33:06;100475.06;;;19.98
34125;BMP280;20110;53.120;5.786;2023-11-19T13:35:31;100494.75;;;20.01
34125;BMP280;20110;53.120;5.786;2023-11-19T13:37:57;100468.41;;;19.88
34125;BMP280;20110;53.120;5.786;2023-11-19T13:40:23;100488.53;;;19.98
34125;BMP280;20110;53.120;5.786;2023-11-19T13:42:50;100496.16;;;19.90
34125;BMP280;20110;53.120;5.786;2023-11-19T13:45:16;100481.47;;;19.82
34125;BMP280;20110;53.120;5.786;2023-11-19T13:47:45;100459.44;;;19.74
34125;BMP280;20110;53.120;5.786;2023-11-19T13:50:13;100453.75;;;19.79
34125;BMP280;20110;53.120;5.786;2023-11-19T13:52:40;100491.00;;;20.06
34125;BMP280;20110;53.120;5.786;2023-11-19T13:55:08;100486.19;;;20.04
34125;BMP280;20110;53.120;5.786;2023-11-19T13:57:35;100480.44;;;19.87
34125;BMP280;20110;53.120;5.786;2023-11-19T14:00:03;100456.53;;;19.69
34125;BMP280;20110;53.120;5.786;2023-11-19T14:02:34;100470.59;;;19.80
34125;BMP280;20110;53.120;5.786;2023-11-19T14:05:00;100474.69;;;19.69
34125;BMP280;20110;53.120;5.786;2023-11-19T14:07:26;100456.47;;;19.35
34125;BMP280;20110;53.120;5.786;2023-11-19T14:09:53;100478.69;;;19.23
34125;BMP280;20110;53.120;5.786;2023-11-19T14:12:19;100480.63;;;19.11
34125;BMP280;20110;53.120;5.786;2023-11-19T14:14:45;100465.19;;;19.12
34125;BMP280;20110;53.120;5.786;2023-11-19T14:17:11;100480.88;;;19.15
34125;BMP280;20110;53.120;5.786;2023-11-19T14:19:37;100439.94;;;18.96
34125;BMP280;20110;53.120;5.786;2023-11-19T14:22:05;100440.97;;;19.12
34125;BMP280;20110;53.120;5.786;2023-11-19T14:24:31;100461.69;;;19.33
34125;BMP280;20110;53.120;5.786;2023-11-19T14:26:56;100430.63;;;19.08
34125;BMP280;20110;53.120;5.786;2023-11-19T14:29:24;100483.88;;;19.43
34125;BMP280;20110;53.120;5.786;2023-11-19T14:31:55;100488.81;;;19.46
34125;BMP280;20110;53.120;5.786;2023-11-19T14:34:21;100451.59;;;19.21
34125;BMP280;20110;53.120;5.786;2023-11-19T14:36:47;100481.53;;;19.49
34125;BMP280;20110;53.120;5.786;2023-11-19T14:39:13;100479.44;;;19.47
34125;BMP280;20110;53.120;5.786;2023-11-19T14:41:39;100476.72;;;19.36
34125;BMP280;20110;53.120;5.786;2023-11-19T14:44:05;100480.38;;;19.40
34125;BMP280;20110;53.120;5.786;2023-11-19T14:46:31;100418.63;;;19.00
34125;BMP280;20110;53.120;5.786;2023-11-19T14:48:57;100478.13;;;19.37
34125;BMP280;20110;53.120;5.786;2023-11-19T14:51:22;100437.31;;;19.07
34125;BMP280;20110;53.120;5.786;2023-11-19T14:53:48;100464.25;;;19.19
34125;BMP280;20110;53.120;5.786;2023-11-19T14:56:14;100479.53;;;19.38
34125;BMP280;20110;53.120;5.786;2023-11-19T14:58:40;100447.59;;;19.11
34125;BMP280;20110;53.120;5.786;2023-11-19T15:01:06;100486.66;;;19.33
34125;BMP280;20110;53.120;5.786;2023-11-19T15:03:33;100491.91;;;19.31
34125;BMP280;20110;53.120;5.786;2023-11-19T15:05:59;100468.28;;;19.08
34125;BMP280;20110;53.120;5.786;2023-11-19T15:08:25;100485.28;;;18.89
34125;BMP280;20110;53.120;5.786;2023-11-19T15:10:50;100483.69;;;18.75
34125;BMP280;20110;53.120;5.786;2023-11-19T15:13:16;100455.19;;;18.39
34125;BMP280;20110;53.120;5.786;2023-11-19T15:15:42;100469.25;;;18.28
34125;BMP280;20110;53.120;5.786;2023-11-19T15:18:08;100459.41;;;18.11
34125;BMP280;20110;53.120;5.786;2023-11-19T15:20:35;100479.56;;;18.22
34125;BMP280;20110;53.120;5.786;2023-11-19T15:23:01;100481.59;;;18.11
34125;BMP280;20110;53.120;5.786;2023-11-19T15:25:27;100481.91;;;18.06
34125;BMP280;20110;53.120;5.786;2023-11-19T15:27:53;100469.50;;;17.91
34125;BMP280;20110;53.120;5.786;2023-11-19T15:30:18;100435.69;;;17.98